Airfield :
LOGIN :

Register | Disclaimer

   EN    FR    IT 

 










Legend :    VFR   Marginal VFR   IFR   Intensive IFR   Very Intensive IFR
Visi :
Ceiling :
>= 8 km
>= 3000ft
5 to 8 km
1000 to 3000 ft
1500m to 5 km
500 to 1000 ft
800 to 1500m
200 to 500 ft
< 800m
< 200 ft
Symbols :   Thunderstorms  Fog  Heavy snow  Heavy precipitations  Wind > 20 kt
SIGMETs :     Misc.  Thunderstorms  Icing  Turbulence  Mountain Waves  Volcanic Ashes







- Airport Elevation : 184 ft
- IATA code : BRU


EBBR - Bruxelles

CURRENT METAR :
  • 212250Z 18005KT CAVOK 11/09 Q1019 NOSIG

EXPIRED METARs :
  • 212220Z 18004KT CAVOK 11/09 Q1019 NOSIG
  • 212150Z 18004KT CAVOK 11/09 Q1019 NOSIG
  • 212120Z 18004KT CAVOK 12/09 Q1019 NOSIG
  • 212050Z 18004KT CAVOK 12/10 Q1019 NOSIG
  • 212020Z 19003KT CAVOK 11/10 Q1019 NOSIG
  • 211950Z 20004KT CAVOK 12/10 Q1019 NOSIG

TAF TAF EBBR
Valid from the 21 at 18:00 until the 23 at 00:00 UTC


211710Z 2118/2224 17005KT CAVOK
TEMPO 2206/2209 4500 -RADZ SCT009 BKN013
No reported NOTAMs for that airfield.



MET'MAP, your aeronautical weather chart ! - Copyright ORBIFLY December 2007 - Disclaimer

ORBIFLY MET'MAP TEAM :

Programming & Development : Alexandra Zaïnal
Concept & Development : Baudouin d'Aumeries
Co-Development & Prog : Marc-Olivier Méhu
Technical & hardware support : Manuel Goepfert

Contact : metmap@orbifly.com




SOURCES & CREDITS :

   NOAA